sensor_id;sensor_type;location;lat;lon;timestamp;P1;durP1;ratioP1;P2;durP2;ratioP2
3949;SDS011;53057;50.988;6.314;2024-02-26T00:00:36;3.23;;;2.63;;
3949;SDS011;53057;50.988;6.314;2024-02-26T00:03:04;1.80;;;1.63;;
3949;SDS011;53057;50.988;6.314;2024-02-26T00:05:32;3.00;;;1.97;;
3949;SDS011;53057;50.988;6.314;2024-02-26T00:08:01;3.37;;;2.53;;
3949;SDS011;53057;50.988;6.314;2024-02-26T00:10:31;1.77;;;1.50;;
3949;SDS011;53057;50.988;6.314;2024-02-26T00:13:00;2.33;;;1.60;;
3949;SDS011;53057;50.988;6.314;2024-02-26T00:15:29;5.03;;;2.00;;
3949;SDS011;53057;50.988;6.314;2024-02-26T00:17:57;2.70;;;1.40;;
3949;SDS011;53057;50.988;6.314;2024-02-26T00:20:24;1.73;;;1.63;;
3949;SDS011;53057;50.988;6.314;2024-02-26T00:22:52;3.70;;;1.30;;
3949;SDS011;53057;50.988;6.314;2024-02-26T00:25:20;3.03;;;2.10;;
3949;SDS011;53057;50.988;6.314;2024-02-26T00:27:47;4.00;;;1.90;;
3949;SDS011;53057;50.988;6.314;2024-02-26T00:30:15;3.57;;;2.10;;
3949;SDS011;53057;50.988;6.314;2024-02-26T00:32:42;2.97;;;1.70;;
3949;SDS011;53057;50.988;6.314;2024-02-26T00:35:10;2.60;;;2.03;;
3949;SDS011;53057;50.988;6.314;2024-02-26T00:37:37;4.20;;;2.10;;
3949;SDS011;53057;50.988;6.314;2024-02-26T00:40:04;3.10;;;2.17;;
3949;SDS011;53057;50.988;6.314;2024-02-26T00:42:31;3.80;;;1.40;;
3949;SDS011;53057;50.988;6.314;2024-02-26T00:44:59;2.00;;;1.63;;
3949;SDS011;53057;50.988;6.314;2024-02-26T00:47:26;12.33;;;2.17;;
3949;SDS011;53057;50.988;6.314;2024-02-26T00:49:53;5.53;;;1.87;;
3949;SDS011;53057;50.988;6.314;2024-02-26T00:52:20;3.40;;;1.40;;
3949;SDS011;53057;50.988;6.314;2024-02-26T00:54:47;2.00;;;1.80;;
3949;SDS011;53057;50.988;6.314;2024-02-26T00:57:13;2.63;;;1.90;;
3949;SDS011;53057;50.988;6.314;2024-02-26T00:59:40;3.90;;;2.33;;
3949;SDS011;53057;50.988;6.314;2024-02-26T01:02:09;3.30;;;1.70;;
3949;SDS011;53057;50.988;6.314;2024-02-26T01:04:36;2.53;;;1.57;;
3949;SDS011;53057;50.988;6.314;2024-02-26T01:07:03;2.20;;;1.63;;
3949;SDS011;53057;50.988;6.314;2024-02-26T01:09:30;3.70;;;1.90;;
3949;SDS011;53057;50.988;6.314;2024-02-26T01:11:58;2.63;;;1.53;;
3949;SDS011;53057;50.988;6.314;2024-02-26T01:14:26;4.10;;;1.87;;
3949;SDS011;53057;50.988;6.314;2024-02-26T01:16:53;1.60;;;1.50;;
3949;SDS011;53057;50.988;6.314;2024-02-26T01:19:20;9.53;;;2.63;;
3949;SDS011;53057;50.988;6.314;2024-02-26T01:21:48;2.40;;;2.00;;
3949;SDS011;53057;50.988;6.314;2024-02-26T01:24:15;5.83;;;1.93;;
3949;SDS011;53057;50.988;6.314;2024-02-26T01:26:42;2.83;;;1.80;;
3949;SDS011;53057;50.988;6.314;2024-02-26T01:29:10;2.40;;;1.90;;
3949;SDS011;53057;50.988;6.314;2024-02-26T01:31:37;5.40;;;2.30;;
3949;SDS011;53057;50.988;6.314;2024-02-26T01:34:04;3.83;;;2.20;;
3949;SDS011;53057;50.988;6.314;2024-02-26T01:36:32;5.13;;;2.60;;
3949;SDS011;53057;50.988;6.314;2024-02-26T01:39:01;5.77;;;1.80;;
3949;SDS011;53057;50.988;6.314;2024-02-26T01:41:30;3.90;;;2.50;;
3949;SDS011;53057;50.988;6.314;2024-02-26T01:43:57;3.23;;;2.43;;
3949;SDS011;53057;50.988;6.314;2024-02-26T01:46:24;2.40;;;2.10;;
3949;SDS011;53057;50.988;6.314;2024-02-26T01:48:51;6.33;;;2.50;;
3949;SDS011;53057;50.988;6.314;2024-02-26T01:51:18;3.90;;;2.33;;
3949;SDS011;53057;50.988;6.314;2024-02-26T01:53:47;3.63;;;2.37;;
3949;SDS011;53057;50.988;6.314;2024-02-26T01:56:14;4.33;;;2.37;;
3949;SDS011;53057;50.988;6.314;2024-02-26T01:58:43;2.87;;;1.80;;
3949;SDS011;53057;50.988;6.314;2024-02-26T02:01:10;6.33;;;2.47;;
3949;SDS011;53057;50.988;6.314;2024-02-26T02:03:39;3.77;;;2.07;;
3949;SDS011;53057;50.988;6.314;2024-02-26T02:06:09;6.90;;;2.70;;
3949;SDS011;53057;50.988;6.314;2024-02-26T02:08:37;2.50;;;2.30;;
3949;SDS011;53057;50.988;6.314;2024-02-26T02:11:05;3.00;;;2.30;;
3949;SDS011;53057;50.988;6.314;2024-02-26T02:13:33;2.43;;;1.83;;
3949;SDS011;53057;50.988;6.314;2024-02-26T02:16:01;6.03;;;2.80;;
3949;SDS011;53057;50.988;6.314;2024-02-26T02:18:28;4.23;;;1.87;;
3949;SDS011;53057;50.988;6.314;2024-02-26T02:20:56;2.93;;;2.10;;
3949;SDS011;53057;50.988;6.314;2024-02-26T02:23:26;3.40;;;2.30;;
3949;SDS011;53057;50.988;6.314;2024-02-26T02:25:54;4.23;;;2.20;;
3949;SDS011;53057;50.988;6.314;2024-02-26T02:28:23;9.30;;;2.33;;
3949;SDS011;53057;50.988;6.314;2024-02-26T02:30:52;3.13;;;2.27;;
3949;SDS011;53057;50.988;6.314;2024-02-26T02:33:20;2.53;;;2.30;;
3949;SDS011;53057;50.988;6.314;2024-02-26T02:35:49;2.10;;;1.83;;
3949;SDS011;53057;50.988;6.314;2024-02-26T02:38:19;4.63;;;2.40;;
3949;SDS011;53057;50.988;6.314;2024-02-26T02:40:46;4.73;;;2.33;;
3949;SDS011;53057;50.988;6.314;2024-02-26T02:43:13;4.37;;;2.00;;
3949;SDS011;53057;50.988;6.314;2024-02-26T02:45:40;2.83;;;1.83;;
3949;SDS011;53057;50.988;6.314;2024-02-26T02:48:08;3.03;;;1.70;;
3949;SDS011;53057;50.988;6.314;2024-02-26T02:50:36;4.60;;;1.70;;
3949;SDS011;53057;50.988;6.314;2024-02-26T02:53:04;1.60;;;1.50;;
3949;SDS011;53057;50.988;6.314;2024-02-26T02:55:32;3.10;;;1.73;;
3949;SDS011;53057;50.988;6.314;2024-02-26T02:57:59;2.80;;;1.97;;
3949;SDS011;53057;50.988;6.314;2024-02-26T03:00:26;3.27;;;2.40;;
3949;SDS011;53057;50.988;6.314;2024-02-26T03:02:53;5.07;;;2.07;;
3949;SDS011;53057;50.988;6.314;2024-02-26T03:05:21;3.13;;;2.03;;
3949;SDS011;53057;50.988;6.314;2024-02-26T03:07:48;5.00;;;2.53;;
3949;SDS011;53057;50.988;6.314;2024-02-26T03:10:15;4.30;;;1.73;;
3949;SDS011;53057;50.988;6.314;2024-02-26T03:12:42;1.93;;;1.77;;
3949;SDS011;53057;50.988;6.314;2024-02-26T03:15:09;6.33;;;2.33;;
3949;SDS011;53057;50.988;6.314;2024-02-26T03:17:38;3.40;;;2.43;;
3949;SDS011;53057;50.988;6.314;2024-02-26T03:20:05;2.37;;;1.70;;
3949;SDS011;53057;50.988;6.314;2024-02-26T03:22:35;3.03;;;1.93;;
3949;SDS011;53057;50.988;6.314;2024-02-26T03:25:02;2.80;;;1.93;;
3949;SDS011;53057;50.988;6.314;2024-02-26T03:27:29;1.80;;;1.70;;
3949;SDS011;53057;50.988;6.314;2024-02-26T03:29:57;2.17;;;1.57;;
3949;SDS011;53057;50.988;6.314;2024-02-26T03:32:24;1.33;;;1.13;;
3949;SDS011;53057;50.988;6.314;2024-02-26T03:34:52;1.40;;;1.30;;
3949;SDS011;53057;50.988;6.314;2024-02-26T03:37:23;2.77;;;1.87;;
3949;SDS011;53057;50.988;6.314;2024-02-26T03:39:50;4.70;;;1.77;;
3949;SDS011;53057;50.988;6.314;2024-02-26T03:42:21;2.93;;;1.77;;
3949;SDS011;53057;50.988;6.314;2024-02-26T03:44:48;2.03;;;1.57;;
3949;SDS011;53057;50.988;6.314;2024-02-26T03:47:20;3.67;;;2.37;;
3949;SDS011;53057;50.988;6.314;2024-02-26T03:49:51;4.47;;;1.97;;
3949;SDS011;53057;50.988;6.314;2024-02-26T03:52:18;2.00;;;1.40;;
3949;SDS011;53057;50.988;6.314;2024-02-26T03:54:45;3.10;;;1.37;;
3949;SDS011;53057;50.988;6.314;2024-02-26T03:57:13;2.03;;;1.53;;
3949;SDS011;53057;50.988;6.314;2024-02-26T03:59:40;4.73;;;1.73;;
3949;SDS011;53057;50.988;6.314;2024-02-26T04:02:07;1.57;;;1.30;;
3949;SDS011;53057;50.988;6.314;2024-02-26T04:04:37;3.50;;;1.40;;
3949;SDS011;53057;50.988;6.314;2024-02-26T04:07:05;3.20;;;1.63;;
3949;SDS011;53057;50.988;6.314;2024-02-26T04:09:32;4.60;;;1.47;;
3949;SDS011;53057;50.988;6.314;2024-02-26T04:12:00;5.10;;;1.63;;
3949;SDS011;53057;50.988;6.314;2024-02-26T04:14:27;4.53;;;1.77;;
3949;SDS011;53057;50.988;6.314;2024-02-26T04:16:54;1.90;;;1.43;;
3949;SDS011;53057;50.988;6.314;2024-02-26T04:19:21;6.33;;;2.27;;
3949;SDS011;53057;50.988;6.314;2024-02-26T04:21:49;1.80;;;1.57;;
3949;SDS011;53057;50.988;6.314;2024-02-26T04:24:21;1.50;;;1.27;;
3949;SDS011;53057;50.988;6.314;2024-02-26T04:26:54;3.20;;;1.43;;
3949;SDS011;53057;50.988;6.314;2024-02-26T04:29:47;2.83;;;1.77;;
3949;SDS011;53057;50.988;6.314;2024-02-26T04:32:17;7.60;;;1.43;;
3949;SDS011;53057;50.988;6.314;2024-02-26T04:34:51;3.10;;;1.30;;
3949;SDS011;53057;50.988;6.314;2024-02-26T04:37:24;11.60;;;2.33;;
3949;SDS011;53057;50.988;6.314;2024-02-26T04:43:18;3.90;;;1.73;;
3949;SDS011;53057;50.988;6.314;2024-02-26T04:49:12;1.50;;;1.33;;
3949;SDS011;53057;50.988;6.314;2024-02-26T04:51:42;2.60;;;1.50;;
3949;SDS011;53057;50.988;6.314;2024-02-26T04:54:16;5.33;;;1.50;;
3949;SDS011;53057;50.988;6.314;2024-02-26T04:57:06;5.90;;;2.30;;
3949;SDS011;53057;50.988;6.314;2024-02-26T05:00:19;7.20;;;2.33;;
3949;SDS011;53057;50.988;6.314;2024-02-26T05:02:55;3.20;;;1.83;;
3949;SDS011;53057;50.988;6.314;2024-02-26T05:05:43;3.03;;;1.97;;
3949;SDS011;53057;50.988;6.314;2024-02-26T05:08:26;1.80;;;1.60;;
3949;SDS011;53057;50.988;6.314;2024-02-26T05:15:02;2.43;;;1.50;;
3949;SDS011;53057;50.988;6.314;2024-02-26T05:19:07;3.63;;;1.40;;
3949;SDS011;53057;50.988;6.314;2024-02-26T05:21:49;2.77;;;1.80;;
3949;SDS011;53057;50.988;6.314;2024-02-26T05:30:13;7.13;;;1.77;;
3949;SDS011;53057;50.988;6.314;2024-02-26T05:32:41;5.53;;;2.20;;
3949;SDS011;53057;50.988;6.314;2024-02-26T05:35:08;3.60;;;1.87;;
3949;SDS011;53057;50.988;6.314;2024-02-26T05:38:13;2.83;;;2.13;;
3949;SDS011;53057;50.988;6.314;2024-02-26T05:48:56;3.83;;;2.17;;
3949;SDS011;53057;50.988;6.314;2024-02-26T05:51:38;4.20;;;1.93;;
3949;SDS011;53057;50.988;6.314;2024-02-26T05:54:28;2.07;;;1.87;;
3949;SDS011;53057;50.988;6.314;2024-02-26T05:57:15;2.93;;;1.93;;
3949;SDS011;53057;50.988;6.314;2024-02-26T06:00:24;7.63;;;2.20;;
3949;SDS011;53057;50.988;6.314;2024-02-26T06:03:00;2.47;;;1.90;;
3949;SDS011;53057;50.988;6.314;2024-02-26T06:05:42;3.27;;;2.30;;
3949;SDS011;53057;50.988;6.314;2024-02-26T06:09:05;5.03;;;3.30;;
3949;SDS011;53057;50.988;6.314;2024-02-26T06:11:35;3.33;;;2.87;;
3949;SDS011;53057;50.988;6.314;2024-02-26T06:15:01;6.10;;;3.03;;
3949;SDS011;53057;50.988;6.314;2024-02-26T06:18:19;3.87;;;2.73;;
3949;SDS011;53057;50.988;6.314;2024-02-26T06:21:17;2.90;;;2.70;;
3949;SDS011;53057;50.988;6.314;2024-02-26T06:25:20;5.53;;;3.60;;
3949;SDS011;53057;50.988;6.314;2024-02-26T06:31:22;5.13;;;2.80;;
3949;SDS011;53057;50.988;6.314;2024-02-26T06:37:43;4.40;;;2.23;;
3949;SDS011;53057;50.988;6.314;2024-02-26T06:40:26;5.60;;;3.80;;
3949;SDS011;53057;50.988;6.314;2024-02-26T06:43:26;5.13;;;3.90;;
3949;SDS011;53057;50.988;6.314;2024-02-26T06:50:14;6.60;;;4.80;;
3949;SDS011;53057;50.988;6.314;2024-02-26T06:53:16;7.90;;;5.20;;
3949;SDS011;53057;50.988;6.314;2024-02-26T07:00:40;8.70;;;5.20;;
3949;SDS011;53057;50.988;6.314;2024-02-26T07:04:05;6.13;;;5.40;;
3949;SDS011;53057;50.988;6.314;2024-02-26T07:11:10;7.00;;;5.13;;
3949;SDS011;53057;50.988;6.314;2024-02-26T07:17:21;15.10;;;6.87;;
3949;SDS011;53057;50.988;6.314;2024-02-26T07:19:51;9.80;;;6.40;;
3949;SDS011;53057;50.988;6.314;2024-02-26T07:22:46;14.77;;;6.10;;
3949;SDS011;53057;50.988;6.314;2024-02-26T07:25:17;8.77;;;6.97;;
3949;SDS011;53057;50.988;6.314;2024-02-26T07:27:45;9.90;;;7.43;;
3949;SDS011;53057;50.988;6.314;2024-02-26T07:30:18;11.37;;;6.90;;
3949;SDS011;53057;50.988;6.314;2024-02-26T07:32:48;10.57;;;7.23;;
3949;SDS011;53057;50.988;6.314;2024-02-26T07:35:24;10.40;;;7.40;;
3949;SDS011;53057;50.988;6.314;2024-02-26T07:38:01;11.90;;;6.07;;
3949;SDS011;53057;50.988;6.314;2024-02-26T07:40:28;9.30;;;6.17;;
3949;SDS011;53057;50.988;6.314;2024-02-26T07:42:56;13.30;;;6.40;;
3949;SDS011;53057;50.988;6.314;2024-02-26T07:45:23;10.23;;;6.50;;
3949;SDS011;53057;50.988;6.314;2024-02-26T07:47:51;11.57;;;6.70;;
3949;SDS011;53057;50.988;6.314;2024-02-26T07:50:28;10.37;;;7.13;;
3949;SDS011;53057;50.988;6.314;2024-02-26T07:52:56;11.80;;;7.10;;
3949;SDS011;53057;50.988;6.314;2024-02-26T07:55:27;11.20;;;7.80;;
3949;SDS011;53057;50.988;6.314;2024-02-26T07:58:00;10.10;;;6.27;;
3949;SDS011;53057;50.988;6.314;2024-02-26T08:00:38;19.33;;;7.80;;
3949;SDS011;53057;50.988;6.314;2024-02-26T08:03:31;7.93;;;5.40;;
3949;SDS011;53057;50.988;6.314;2024-02-26T08:10:00;12.20;;;6.73;;
3949;SDS011;53057;50.988;6.314;2024-02-26T08:16:58;7.50;;;5.03;;
3949;SDS011;53057;50.988;6.314;2024-02-26T08:19:26;12.60;;;6.93;;
3949;SDS011;53057;50.988;6.314;2024-02-26T08:21:53;18.10;;;6.13;;
3949;SDS011;53057;50.988;6.314;2024-02-26T08:24:20;9.57;;;6.43;;
3949;SDS011;53057;50.988;6.314;2024-02-26T08:26:47;10.33;;;6.00;;
3949;SDS011;53057;50.988;6.314;2024-02-26T08:29:14;8.00;;;5.80;;
3949;SDS011;53057;50.988;6.314;2024-02-26T08:31:43;10.80;;;7.40;;
3949;SDS011;53057;50.988;6.314;2024-02-26T08:34:14;7.00;;;5.60;;
3949;SDS011;53057;50.988;6.314;2024-02-26T08:36:44;9.10;;;5.63;;
3949;SDS011;53057;50.988;6.314;2024-02-26T08:39:11;11.93;;;6.40;;
3949;SDS011;53057;50.988;6.314;2024-02-26T08:41:40;6.50;;;5.67;;
3949;SDS011;53057;50.988;6.314;2024-02-26T08:44:07;10.20;;;7.97;;
3949;SDS011;53057;50.988;6.314;2024-02-26T08:46:34;8.53;;;6.10;;
3949;SDS011;53057;50.988;6.314;2024-02-26T08:49:01;13.10;;;6.17;;
3949;SDS011;53057;50.988;6.314;2024-02-26T08:51:28;10.60;;;6.97;;
3949;SDS011;53057;50.988;6.314;2024-02-26T08:53:56;14.73;;;6.10;;
3949;SDS011;53057;50.988;6.314;2024-02-26T08:56:23;7.47;;;5.83;;
3949;SDS011;53057;50.988;6.314;2024-02-26T08:58:50;10.80;;;6.40;;
3949;SDS011;53057;50.988;6.314;2024-02-26T09:01:21;9.40;;;5.73;;
3949;SDS011;53057;50.988;6.314;2024-02-26T09:03:50;9.23;;;6.40;;
3949;SDS011;53057;50.988;6.314;2024-02-26T09:06:17;11.10;;;5.00;;
3949;SDS011;53057;50.988;6.314;2024-02-26T09:08:45;11.23;;;5.17;;
3949;SDS011;53057;50.988;6.314;2024-02-26T09:11:12;9.30;;;5.80;;
3949;SDS011;53057;50.988;6.314;2024-02-26T09:13:41;8.70;;;4.97;;
3949;SDS011;53057;50.988;6.314;2024-02-26T09:16:09;8.00;;;5.80;;
3949;SDS011;53057;50.988;6.314;2024-02-26T09:18:42;7.27;;;5.63;;
3949;SDS011;53057;50.988;6.314;2024-02-26T09:21:09;6.97;;;4.63;;
3949;SDS011;53057;50.988;6.314;2024-02-26T09:23:38;7.33;;;5.23;;
3949;SDS011;53057;50.988;6.314;2024-02-26T09:26:15;10.47;;;5.37;;
3949;SDS011;53057;50.988;6.314;2024-02-26T09:28:44;10.07;;;6.10;;
3949;SDS011;53057;50.988;6.314;2024-02-26T09:31:14;6.87;;;5.27;;
3949;SDS011;53057;50.988;6.314;2024-02-26T09:33:45;5.90;;;5.30;;
3949;SDS011;53057;50.988;6.314;2024-02-26T09:36:15;5.30;;;4.67;;
3949;SDS011;53057;50.988;6.314;2024-02-26T09:38:43;7.07;;;4.60;;
3949;SDS011;53057;50.988;6.314;2024-02-26T09:41:28;9.00;;;5.73;;
3949;SDS011;53057;50.988;6.314;2024-02-26T09:43:58;8.07;;;4.90;;
3949;SDS011;53057;50.988;6.314;2024-02-26T09:46:31;5.80;;;3.97;;
3949;SDS011;53057;50.988;6.314;2024-02-26T09:49:02;6.43;;;5.10;;
3949;SDS011;53057;50.988;6.314;2024-02-26T09:51:35;5.57;;;3.70;;
3949;SDS011;53057;50.988;6.314;2024-02-26T09:54:10;5.20;;;4.00;;
3949;SDS011;53057;50.988;6.314;2024-02-26T09:56:40;4.70;;;3.40;;
3949;SDS011;53057;50.988;6.314;2024-02-26T09:59:23;5.33;;;2.80;;
3949;SDS011;53057;50.988;6.314;2024-02-26T10:01:53;5.90;;;3.00;;
3949;SDS011;53057;50.988;6.314;2024-02-26T10:04:21;6.70;;;2.33;;
3949;SDS011;53057;50.988;6.314;2024-02-26T10:06:50;4.97;;;2.77;;
3949;SDS011;53057;50.988;6.314;2024-02-26T10:09:33;6.23;;;3.20;;
3949;SDS011;53057;50.988;6.314;2024-02-26T10:12:06;5.63;;;2.50;;
3949;SDS011;53057;50.988;6.314;2024-02-26T10:14:36;2.70;;;2.43;;
3949;SDS011;53057;50.988;6.314;2024-02-26T10:17:07;3.90;;;2.90;;
3949;SDS011;53057;50.988;6.314;2024-02-26T10:19:37;3.90;;;2.27;;
3949;SDS011;53057;50.988;6.314;2024-02-26T10:22:05;2.83;;;1.70;;
3949;SDS011;53057;50.988;6.314;2024-02-26T10:24:36;3.20;;;2.40;;
3949;SDS011;53057;50.988;6.314;2024-02-26T10:27:04;3.43;;;1.60;;
3949;SDS011;53057;50.988;6.314;2024-02-26T10:29:33;2.70;;;1.63;;
3949;SDS011;53057;50.988;6.314;2024-02-26T10:32:03;2.47;;;1.70;;
3949;SDS011;53057;50.988;6.314;2024-02-26T10:34:30;2.30;;;2.03;;
3949;SDS011;53057;50.988;6.314;2024-02-26T10:37:02;3.00;;;2.13;;
3949;SDS011;53057;50.988;6.314;2024-02-26T10:39:30;1.63;;;1.50;;
3949;SDS011;53057;50.988;6.314;2024-02-26T10:41:59;3.57;;;2.20;;
3949;SDS011;53057;50.988;6.314;2024-02-26T10:44:42;5.47;;;2.63;;
3949;SDS011;53057;50.988;6.314;2024-02-26T10:47:15;3.87;;;2.43;;
3949;SDS011;53057;50.988;6.314;2024-02-26T10:49:46;2.70;;;2.33;;
3949;SDS011;53057;50.988;6.314;2024-02-26T10:52:21;5.60;;;3.43;;
3949;SDS011;53057;50.988;6.314;2024-02-26T10:54:53;5.70;;;3.87;;
3949;SDS011;53057;50.988;6.314;2024-02-26T10:57:25;3.30;;;1.80;;
3949;SDS011;53057;50.988;6.314;2024-02-26T10:59:54;4.17;;;2.50;;
3949;SDS011;53057;50.988;6.314;2024-02-26T11:02:21;5.07;;;2.70;;
3949;SDS011;53057;50.988;6.314;2024-02-26T11:04:49;3.13;;;2.83;;
3949;SDS011;53057;50.988;6.314;2024-02-26T11:07:16;5.27;;;3.40;;
3949;SDS011;53057;50.988;6.314;2024-02-26T11:09:45;3.97;;;2.53;;
3949;SDS011;53057;50.988;6.314;2024-02-26T11:12:14;4.10;;;3.00;;
3949;SDS011;53057;50.988;6.314;2024-02-26T11:14:41;4.43;;;3.10;;
3949;SDS011;53057;50.988;6.314;2024-02-26T11:17:09;11.50;;;3.90;;
3949;SDS011;53057;50.988;6.314;2024-02-26T11:19:36;6.83;;;3.03;;
3949;SDS011;53057;50.988;6.314;2024-02-26T11:22:05;4.00;;;3.37;;
3949;SDS011;53057;50.988;6.314;2024-02-26T11:24:46;4.87;;;3.50;;
3949;SDS011;53057;50.988;6.314;2024-02-26T11:27:13;6.03;;;4.10;;
3949;SDS011;53057;50.988;6.314;2024-02-26T11:29:44;4.00;;;3.43;;
3949;SDS011;53057;50.988;6.314;2024-02-26T11:32:13;3.67;;;3.37;;
3949;SDS011;53057;50.988;6.314;2024-02-26T11:34:41;12.07;;;4.97;;
3949;SDS011;53057;50.988;6.314;2024-02-26T11:37:12;5.27;;;3.77;;
3949;SDS011;53057;50.988;6.314;2024-02-26T11:39:43;8.30;;;3.60;;
3949;SDS011;53057;50.988;6.314;2024-02-26T11:42:15;5.73;;;3.13;;
3949;SDS011;53057;50.988;6.314;2024-02-26T11:44:42;3.83;;;2.70;;
3949;SDS011;53057;50.988;6.314;2024-02-26T11:47:19;6.67;;;3.90;;
3949;SDS011;53057;50.988;6.314;2024-02-26T11:49:48;4.20;;;3.50;;
3949;SDS011;53057;50.988;6.314;2024-02-26T11:52:15;6.43;;;3.13;;
3949;SDS011;53057;50.988;6.314;2024-02-26T11:59:49;9.20;;;2.93;;
3949;SDS011;53057;50.988;6.314;2024-02-26T12:05:04;5.10;;;3.60;;
3949;SDS011;53057;50.988;6.314;2024-02-26T12:07:34;6.53;;;4.30;;
3949;SDS011;53057;50.988;6.314;2024-02-26T12:13:06;7.47;;;4.83;;
3949;SDS011;53057;50.988;6.314;2024-02-26T12:15:43;7.80;;;4.93;;
3949;SDS011;53057;50.988;6.314;2024-02-26T12:18:15;7.07;;;4.80;;
3949;SDS011;53057;50.988;6.314;2024-02-26T12:20:43;6.80;;;5.07;;
3949;SDS011;53057;50.988;6.314;2024-02-26T12:23:16;10.90;;;5.20;;
3949;SDS011;53057;50.988;6.314;2024-02-26T12:25:46;8.57;;;5.23;;
3949;SDS011;53057;50.988;6.314;2024-02-26T12:28:15;7.00;;;5.17;;
3949;SDS011;53057;50.988;6.314;2024-02-26T12:30:41;10.20;;;6.27;;
3949;SDS011;53057;50.988;6.314;2024-02-26T12:33:08;13.20;;;6.73;;
3949;SDS011;53057;50.988;6.314;2024-02-26T12:35:35;11.80;;;7.30;;
3949;SDS011;53057;50.988;6.314;2024-02-26T12:38:03;13.10;;;8.63;;
3949;SDS011;53057;50.988;6.314;2024-02-26T12:40:31;10.70;;;8.53;;
3949;SDS011;53057;50.988;6.314;2024-02-26T12:42:58;12.10;;;7.63;;
3949;SDS011;53057;50.988;6.314;2024-02-26T12:45:25;15.33;;;8.00;;
3949;SDS011;53057;50.988;6.314;2024-02-26T12:47:53;9.60;;;7.90;;
3949;SDS011;53057;50.988;6.314;2024-02-26T12:50:19;12.07;;;8.83;;
3949;SDS011;53057;50.988;6.314;2024-02-26T12:52:47;9.30;;;7.20;;
3949;SDS011;53057;50.988;6.314;2024-02-26T12:55:14;14.20;;;9.00;;
3949;SDS011;53057;50.988;6.314;2024-02-26T12:57:42;10.37;;;8.50;;
3949;SDS011;53057;50.988;6.314;2024-02-26T13:00:12;16.67;;;9.00;;
3949;SDS011;53057;50.988;6.314;2024-02-26T13:02:41;14.33;;;8.33;;
3949;SDS011;53057;50.988;6.314;2024-02-26T13:05:12;10.07;;;8.93;;
3949;SDS011;53057;50.988;6.314;2024-02-26T13:07:43;12.07;;;7.67;;
3949;SDS011;53057;50.988;6.314;2024-02-26T13:10:10;18.50;;;9.93;;
3949;SDS011;53057;50.988;6.314;2024-02-26T13:12:42;12.97;;;9.40;;
3949;SDS011;53057;50.988;6.314;2024-02-26T13:15:13;12.40;;;7.23;;
3949;SDS011;53057;50.988;6.314;2024-02-26T13:17:41;14.93;;;7.20;;
3949;SDS011;53057;50.988;6.314;2024-02-26T13:20:08;11.50;;;9.77;;
3949;SDS011;53057;50.988;6.314;2024-02-26T13:22:37;10.63;;;7.50;;
3949;SDS011;53057;50.988;6.314;2024-02-26T13:25:04;11.20;;;8.40;;
3949;SDS011;53057;50.988;6.314;2024-02-26T13:27:31;16.33;;;9.23;;
3949;SDS011;53057;50.988;6.314;2024-02-26T13:30:02;16.30;;;10.83;;
3949;SDS011;53057;50.988;6.314;2024-02-26T13:32:29;18.30;;;10.20;;
3949;SDS011;53057;50.988;6.314;2024-02-26T13:35:10;17.80;;;12.40;;
3949;SDS011;53057;50.988;6.314;2024-02-26T13:37:38;17.43;;;10.07;;
3949;SDS011;53057;50.988;6.314;2024-02-26T13:40:06;18.53;;;10.43;;
3949;SDS011;53057;50.988;6.314;2024-02-26T13:42:33;16.47;;;13.03;;
3949;SDS011;53057;50.988;6.314;2024-02-26T13:45:00;20.30;;;12.87;;
3949;SDS011;53057;50.988;6.314;2024-02-26T13:47:28;24.47;;;14.40;;
3949;SDS011;53057;50.988;6.314;2024-02-26T13:50:00;26.07;;;15.37;;
3949;SDS011;53057;50.988;6.314;2024-02-26T13:52:27;26.53;;;15.37;;
3949;SDS011;53057;50.988;6.314;2024-02-26T13:54:55;24.43;;;14.37;;
3949;SDS011;53057;50.988;6.314;2024-02-26T13:57:22;24.27;;;14.10;;
3949;SDS011;53057;50.988;6.314;2024-02-26T13:59:49;21.93;;;15.60;;
3949;SDS011;53057;50.988;6.314;2024-02-26T14:02:17;23.33;;;14.23;;
3949;SDS011;53057;50.988;6.314;2024-02-26T14:04:44;26.00;;;16.40;;
3949;SDS011;53057;50.988;6.314;2024-02-26T14:07:14;23.77;;;14.30;;
3949;SDS011;53057;50.988;6.314;2024-02-26T14:09:44;26.40;;;18.00;;
3949;SDS011;53057;50.988;6.314;2024-02-26T14:12:16;26.50;;;16.20;;
3949;SDS011;53057;50.988;6.314;2024-02-26T14:14:48;21.20;;;14.10;;
3949;SDS011;53057;50.988;6.314;2024-02-26T14:17:15;28.53;;;16.63;;
3949;SDS011;53057;50.988;6.314;2024-02-26T14:19:42;27.23;;;17.77;;
3949;SDS011;53057;50.988;6.314;2024-02-26T14:22:15;26.60;;;17.40;;
3949;SDS011;53057;50.988;6.314;2024-02-26T14:24:45;34.63;;;18.23;;
3949;SDS011;53057;50.988;6.314;2024-02-26T14:27:12;29.77;;;18.10;;
3949;SDS011;53057;50.988;6.314;2024-02-26T14:29:44;26.07;;;18.43;;
3949;SDS011;53057;50.988;6.314;2024-02-26T14:35:45;34.67;;;19.67;;
3949;SDS011;53057;50.988;6.314;2024-02-26T14:38:12;33.47;;;19.53;;
3949;SDS011;53057;50.988;6.314;2024-02-26T14:40:39;26.10;;;17.97;;
3949;SDS011;53057;50.988;6.314;2024-02-26T14:43:06;27.30;;;16.67;;
3949;SDS011;53057;50.988;6.314;2024-02-26T14:45:36;25.57;;;15.97;;
3949;SDS011;53057;50.988;6.314;2024-02-26T14:48:05;29.30;;;17.70;;
3949;SDS011;53057;50.988;6.314;2024-02-26T14:50:32;26.67;;;16.47;;
3949;SDS011;53057;50.988;6.314;2024-02-26T14:52:59;28.97;;;18.20;;
3949;SDS011;53057;50.988;6.314;2024-02-26T14:55:27;24.47;;;15.87;;
3949;SDS011;53057;50.988;6.314;2024-02-26T14:57:54;28.33;;;16.83;;
3949;SDS011;53057;50.988;6.314;2024-02-26T15:00:22;22.53;;;16.57;;
3949;SDS011;53057;50.988;6.314;2024-02-26T15:02:50;25.40;;;17.77;;
3949;SDS011;53057;50.988;6.314;2024-02-26T15:05:18;29.63;;;18.87;;
3949;SDS011;53057;50.988;6.314;2024-02-26T15:07:46;24.73;;;17.97;;
3949;SDS011;53057;50.988;6.314;2024-02-26T15:10:13;27.30;;;16.87;;
3949;SDS011;53057;50.988;6.314;2024-02-26T15:12:40;22.30;;;15.77;;
3949;SDS011;53057;50.988;6.314;2024-02-26T15:15:07;27.10;;;18.30;;
3949;SDS011;53057;50.988;6.314;2024-02-26T15:17:34;27.43;;;18.50;;
3949;SDS011;53057;50.988;6.314;2024-02-26T15:20:03;25.57;;;17.80;;
3949;SDS011;53057;50.988;6.314;2024-02-26T15:22:30;30.43;;;18.20;;
3949;SDS011;53057;50.988;6.314;2024-02-26T15:24:57;26.03;;;17.20;;
3949;SDS011;53057;50.988;6.314;2024-02-26T15:27:24;29.27;;;15.97;;
3949;SDS011;53057;50.988;6.314;2024-02-26T15:29:51;28.10;;;18.57;;
3949;SDS011;53057;50.988;6.314;2024-02-26T15:32:25;23.60;;;15.87;;
3949;SDS011;53057;50.988;6.314;2024-02-26T15:34:54;25.57;;;16.70;;
3949;SDS011;53057;50.988;6.314;2024-02-26T15:37:21;23.27;;;14.37;;
3949;SDS011;53057;50.988;6.314;2024-02-26T15:39:49;18.00;;;13.00;;
3949;SDS011;53057;50.988;6.314;2024-02-26T15:42:16;18.40;;;12.63;;
3949;SDS011;53057;50.988;6.314;2024-02-26T15:44:44;24.10;;;13.73;;
3949;SDS011;53057;50.988;6.314;2024-02-26T15:47:11;18.90;;;13.00;;
3949;SDS011;53057;50.988;6.314;2024-02-26T15:49:39;17.23;;;12.80;;
3949;SDS011;53057;50.988;6.314;2024-02-26T15:52:06;27.23;;;13.80;;
3949;SDS011;53057;50.988;6.314;2024-02-26T15:54:43;17.77;;;13.40;;
3949;SDS011;53057;50.988;6.314;2024-02-26T15:57:11;24.80;;;15.30;;
3949;SDS011;53057;50.988;6.314;2024-02-26T15:59:38;21.67;;;14.73;;
3949;SDS011;53057;50.988;6.314;2024-02-26T16:02:05;22.10;;;14.20;;
3949;SDS011;53057;50.988;6.314;2024-02-26T16:04:32;19.93;;;13.97;;
3949;SDS011;53057;50.988;6.314;2024-02-26T16:07:01;17.17;;;12.73;;
3949;SDS011;53057;50.988;6.314;2024-02-26T16:09:31;19.37;;;13.53;;
3949;SDS011;53057;50.988;6.314;2024-02-26T16:11:58;15.50;;;10.90;;
3949;SDS011;53057;50.988;6.314;2024-02-26T16:17:04;23.37;;;14.50;;
3949;SDS011;53057;50.988;6.314;2024-02-26T16:19:34;17.13;;;12.33;;
3949;SDS011;53057;50.988;6.314;2024-02-26T16:22:02;17.57;;;12.60;;
3949;SDS011;53057;50.988;6.314;2024-02-26T16:24:31;18.87;;;14.20;;
3949;SDS011;53057;50.988;6.314;2024-02-26T16:26:59;19.40;;;11.43;;
3949;SDS011;53057;50.988;6.314;2024-02-26T16:29:27;20.07;;;12.83;;
3949;SDS011;53057;50.988;6.314;2024-02-26T16:31:55;21.57;;;12.90;;